createdAt,value
2023-08-15T00:00:24.620Z,10.93
2023-08-15T00:02:51.642Z,11.98
2023-08-15T00:05:18.613Z,11.57
2023-08-15T00:08:03.810Z,12.82
2023-08-15T00:10:30.696Z,13.75
2023-08-15T00:12:58.548Z,13.38
2023-08-15T00:15:25.691Z,13.73
2023-08-15T00:17:52.538Z,12.65
2023-08-15T00:20:19.549Z,14.00
2023-08-15T00:22:46.401Z,11.23
2023-08-15T00:25:13.407Z,11.07
2023-08-15T00:27:40.536Z,12.88
2023-08-15T00:30:08.054Z,13.73
2023-08-15T00:32:37.203Z,13.80
2023-08-15T00:35:05.283Z,12.52
2023-08-15T00:37:35.442Z,12.27
2023-08-15T00:40:02.509Z,12.55
2023-08-15T00:42:30.191Z,12.73
2023-08-15T00:44:58.816Z,12.30
2023-08-15T00:47:26.732Z,14.73
2023-08-15T00:49:55.069Z,14.60
2023-08-15T00:52:22.068Z,14.70
2023-08-15T00:54:51.161Z,14.98
2023-08-15T00:57:18.996Z,14.85
2023-08-15T00:59:46.568Z,15.05
2023-08-15T01:02:13.784Z,14.82
2023-08-15T01:04:42.890Z,15.63
2023-08-15T01:07:10.907Z,13.80
2023-08-15T01:09:38.475Z,13.30
2023-08-15T01:12:43.645Z,14.18
2023-08-15T01:15:16.787Z,14.05
2023-08-15T01:18:02.723Z,13.93
2023-08-15T01:20:34.302Z,13.82
2023-08-15T01:23:03.317Z,13.48
2023-08-15T01:25:33.367Z,13.65
2023-08-15T01:28:01.204Z,12.98
2023-08-15T01:30:28.700Z,13.98
2023-08-15T01:33:35.617Z,12.63
2023-08-15T01:36:17.626Z,12.82
2023-08-15T01:38:49.215Z,12.38
2023-08-15T01:41:20.588Z,11.73
2023-08-15T01:43:48.990Z,12.88
2023-08-15T01:46:16.155Z,13.63
2023-08-15T01:48:43.747Z,13.82
2023-08-15T01:51:11.816Z,14.77
2023-08-15T01:53:39.772Z,13.32
2023-08-15T01:56:07.233Z,13.93
2023-08-15T01:58:34.232Z,13.88
2023-08-15T02:01:04.038Z,14.05
2023-08-15T02:03:31.655Z,14.25
2023-08-15T02:05:58.630Z,14.02
2023-08-15T02:08:25.697Z,13.85
2023-08-15T02:10:53.439Z,13.70
2023-08-15T02:13:20.714Z,13.55
2023-08-15T02:15:47.704Z,13.60
2023-08-15T02:18:14.754Z,15.20
2023-08-15T02:20:41.625Z,16.00
2023-08-15T02:23:08.897Z,14.52
2023-08-15T02:25:36.093Z,15.35
2023-08-15T02:28:03.163Z,15.25
2023-08-15T02:30:30.982Z,15.25
2023-08-15T02:32:57.935Z,15.82
2023-08-15T02:35:24.909Z,16.30
2023-08-15T02:37:52.060Z,16.55
2023-08-15T02:40:18.928Z,16.88
2023-08-15T02:42:45.880Z,16.63
2023-08-15T02:45:12.680Z,16.77
2023-08-15T02:47:39.642Z,17.27
2023-08-15T02:50:07.775Z,16.40
2023-08-15T02:52:34.976Z,17.13
2023-08-15T02:55:01.789Z,17.10
2023-08-15T02:57:28.914Z,17.95
2023-08-15T02:59:55.958Z,17.17
2023-08-15T03:02:23.734Z,18.27
2023-08-15T03:04:50.679Z,19.20
2023-08-15T03:07:17.599Z,19.33
2023-08-15T03:09:44.345Z,20.13
2023-08-15T03:12:11.339Z,20.55
2023-08-15T03:14:38.277Z,19.80
2023-08-15T03:17:05.472Z,19.52
2023-08-15T03:19:32.310Z,18.73
2023-08-15T03:21:59.554Z,19.10
2023-08-15T03:24:29.422Z,17.98
2023-08-15T03:26:57.122Z,17.13
2023-08-15T03:29:24.076Z,14.15
2023-08-15T03:31:51.167Z,13.07
2023-08-15T03:34:18.023Z,10.45
2023-08-15T03:36:47.077Z,8.93
2023-08-15T03:39:13.840Z,7.05
2023-08-15T03:41:40.699Z,7.28
2023-08-15T03:44:07.570Z,7.78
2023-08-15T03:46:34.521Z,8.50
2023-08-15T03:49:01.458Z,10.18
2023-08-15T03:51:45.728Z,8.30
2023-08-15T03:54:14.806Z,7.03
2023-08-15T03:56:41.870Z,7.30
2023-08-15T03:59:09.463Z,7.53
2023-08-15T04:01:36.378Z,7.05
2023-08-15T04:04:04.487Z,7.32
2023-08-15T04:06:32.070Z,7.63
2023-08-15T04:08:59.031Z,6.93
2023-08-15T04:11:26.191Z,6.60
2023-08-15T04:13:53.185Z,6.40
2023-08-15T04:16:20.084Z,6.05
2023-08-15T04:18:47.063Z,7.53
2023-08-15T04:21:13.896Z,6.32
2023-08-15T04:23:40.868Z,6.45
2023-08-15T04:26:07.847Z,6.70
2023-08-15T04:28:35.174Z,6.50
2023-08-15T04:31:02.217Z,6.18
2023-08-15T04:33:29.181Z,6.18
2023-08-15T04:35:56.480Z,5.95
2023-08-15T04:38:23.401Z,5.82
2023-08-15T04:40:50.253Z,5.85
2023-08-15T04:43:17.142Z,6.32
2023-08-15T04:45:46.932Z,5.13
2023-08-15T04:48:14.668Z,5.57
2023-08-15T04:50:42.181Z,6.00
2023-08-15T04:53:09.280Z,5.75
2023-08-15T04:55:36.326Z,5.25
2023-08-15T04:58:03.553Z,5.30
2023-08-15T05:00:33.962Z,5.50
2023-08-15T05:03:02.513Z,5.28
2023-08-15T05:05:29.411Z,5.38
2023-08-15T05:07:56.356Z,5.25
2023-08-15T05:10:23.551Z,5.05
2023-08-15T05:12:50.624Z,5.53
2023-08-15T05:15:17.942Z,5.13
2023-08-15T05:17:45.727Z,5.38
2023-08-15T05:20:13.621Z,5.10
2023-08-15T05:22:40.848Z,5.55
2023-08-15T05:25:08.656Z,5.05
2023-08-15T05:27:41.819Z,4.85
2023-08-15T05:30:09.943Z,4.78
2023-08-15T05:32:36.968Z,4.63
2023-08-15T05:35:04.155Z,4.90
2023-08-15T05:37:31.055Z,5.00
2023-08-15T05:39:58.626Z,4.90
2023-08-15T05:42:25.512Z,4.50
2023-08-15T05:44:52.735Z,5.15
2023-08-15T05:47:22.065Z,5.28
2023-08-15T05:49:49.398Z,4.53
2023-08-15T05:52:16.332Z,4.63
2023-08-15T05:54:43.662Z,4.65
2023-08-15T05:57:10.477Z,4.90
2023-08-15T05:59:37.404Z,4.88
2023-08-15T06:02:04.240Z,4.05
2023-08-15T06:04:31.544Z,4.03
2023-08-15T06:06:58.368Z,4.20
2023-08-15T06:09:25.275Z,3.20
2023-08-15T06:11:52.149Z,3.50
2023-08-15T06:14:22.213Z,3.72
2023-08-15T06:16:49.953Z,3.63
2023-08-15T06:19:17.167Z,3.83
2023-08-15T06:21:44.231Z,3.75
2023-08-15T06:24:14.873Z,3.83
2023-08-15T06:26:41.692Z,3.65
2023-08-15T06:29:09.457Z,3.58
2023-08-15T06:31:37.223Z,2.88
2023-08-15T06:34:04.776Z,3.83
2023-08-15T06:36:32.922Z,3.50
2023-08-15T06:39:00.018Z,3.28
2023-08-15T06:41:27.094Z,3.55
2023-08-15T06:43:56.008Z,3.25
2023-08-15T06:46:23.556Z,3.30
2023-08-15T06:48:50.652Z,3.35
2023-08-15T06:51:17.536Z,3.13
2023-08-15T06:53:47.729Z,3.03
2023-08-15T06:56:14.704Z,3.10
2023-08-15T06:58:41.639Z,3.38
2023-08-15T07:01:08.658Z,3.35
2023-08-15T07:03:35.669Z,3.50
2023-08-15T07:06:02.874Z,3.35
2023-08-15T07:08:30.075Z,2.95
2023-08-15T07:10:58.126Z,2.67
2023-08-15T07:13:25.219Z,3.28
2023-08-15T07:15:57.408Z,3.33
2023-08-15T07:18:25.661Z,2.60
2023-08-15T07:20:53.130Z,2.60
2023-08-15T07:23:21.866Z,2.20
2023-08-15T07:25:49.227Z,2.40
2023-08-15T07:28:16.762Z,2.20
2023-08-15T07:30:47.036Z,2.13
2023-08-15T07:33:15.422Z,2.00
2023-08-15T07:35:46.048Z,2.40
2023-08-15T07:38:14.609Z,2.00
2023-08-15T07:40:42.786Z,2.30
2023-08-15T07:43:09.787Z,2.00
2023-08-15T07:45:36.811Z,2.25
2023-08-15T07:48:05.278Z,1.80
2023-08-15T07:50:32.642Z,2.17
2023-08-15T07:52:59.858Z,1.73
2023-08-15T07:55:33.963Z,2.38
2023-08-15T07:58:01.384Z,1.98
2023-08-15T08:00:28.754Z,1.88
2023-08-15T08:02:56.167Z,2.10
2023-08-15T08:05:23.795Z,1.85
2023-08-15T08:07:51.541Z,1.75
2023-08-15T08:10:19.053Z,1.80
2023-08-15T08:12:47.349Z,1.88
2023-08-15T08:15:14.734Z,2.08
2023-08-15T08:17:42.128Z,2.13
2023-08-15T08:20:13.719Z,1.67
2023-08-15T08:22:41.527Z,1.70
2023-08-15T08:25:17.524Z,1.90
2023-08-15T08:27:45.877Z,2.20
2023-08-15T08:30:14.891Z,1.92
2023-08-15T08:32:42.161Z,1.77
2023-08-15T08:35:09.931Z,1.80
2023-08-15T08:37:37.060Z,1.88
2023-08-15T08:40:05.968Z,2.00
2023-08-15T08:42:33.472Z,2.00
2023-08-15T08:45:01.546Z,1.90
2023-08-15T08:47:31.772Z,2.00
2023-08-15T08:50:01.336Z,1.73
2023-08-15T08:52:31.277Z,2.23
2023-08-15T08:54:58.595Z,1.85
2023-08-15T08:57:31.891Z,2.15
2023-08-15T09:00:02.128Z,1.80
2023-08-15T09:02:29.513Z,1.80
2023-08-15T09:04:57.079Z,2.10
2023-08-15T09:07:24.365Z,2.15
2023-08-15T09:09:51.627Z,2.00
2023-08-15T09:12:41.498Z,1.90
2023-08-15T09:15:10.440Z,1.95
2023-08-15T09:17:39.622Z,2.13
2023-08-15T09:20:15.465Z,2.13
2023-08-15T09:22:47.067Z,1.95
2023-08-15T09:25:24.282Z,2.03
2023-08-15T09:27:51.269Z,1.70
2023-08-15T09:30:19.106Z,2.10
2023-08-15T09:32:47.722Z,1.92
2023-08-15T09:35:17.194Z,1.90
2023-08-15T09:37:45.877Z,1.90
2023-08-15T09:40:15.850Z,2.25
2023-08-15T09:42:44.422Z,2.10
2023-08-15T09:45:16.295Z,1.75
2023-08-15T09:47:45.426Z,2.35
2023-08-15T09:50:14.867Z,1.95
2023-08-15T09:52:50.847Z,1.75
2023-08-15T09:55:20.447Z,1.95
2023-08-15T09:57:48.066Z,1.80
2023-08-15T10:00:18.668Z,1.77
2023-08-15T10:02:56.842Z,1.88
2023-08-15T10:05:26.708Z,1.80
2023-08-15T10:07:54.508Z,1.65
2023-08-15T10:10:22.663Z,1.88
2023-08-15T10:12:51.890Z,1.98
2023-08-15T10:15:20.240Z,1.80
2023-08-15T10:17:47.625Z,1.60
2023-08-15T10:20:19.424Z,1.90
2023-08-15T10:22:51.861Z,1.65
2023-08-15T10:25:41.221Z,1.88
2023-08-15T10:28:13.487Z,1.73
2023-08-15T10:30:44.122Z,1.80
2023-08-15T10:33:25.218Z,1.70
2023-08-15T10:35:58.367Z,1.92
2023-08-15T10:38:29.292Z,1.75
2023-08-15T10:41:07.969Z,1.90
2023-08-15T10:43:37.265Z,1.60
2023-08-15T10:46:06.480Z,1.48
2023-08-15T10:49:03.455Z,1.75
2023-08-15T10:51:31.550Z,1.63
2023-08-15T10:54:07.766Z,2.05
2023-08-15T10:56:37.559Z,1.90
2023-08-15T10:59:08.430Z,1.52
2023-08-15T11:01:38.069Z,1.52
2023-08-15T11:04:09.778Z,1.80
2023-08-15T11:06:48.039Z,1.55
2023-08-15T11:09:16.144Z,1.65
2023-08-15T11:11:43.501Z,1.70
2023-08-15T11:14:18.227Z,1.92
2023-08-15T11:16:47.195Z,1.90
2023-08-15T11:19:21.264Z,1.63
2023-08-15T11:21:49.544Z,1.80
2023-08-15T11:24:17.561Z,2.22
2023-08-15T11:26:45.774Z,1.67
2023-08-15T11:29:14.468Z,1.50
2023-08-15T11:31:42.865Z,1.73
2023-08-15T11:34:12.892Z,1.85
2023-08-15T11:36:40.042Z,1.80
2023-08-15T11:39:12.029Z,1.70
2023-08-15T11:41:39.398Z,1.63
2023-08-15T11:44:06.555Z,2.00
2023-08-15T11:46:52.948Z,2.03
2023-08-15T11:49:23.257Z,1.77
2023-08-15T11:51:51.036Z,1.80
2023-08-15T11:54:18.440Z,1.65
2023-08-15T11:56:54.409Z,1.60
2023-08-15T11:59:23.740Z,1.52
2023-08-15T12:01:51.176Z,1.52
2023-08-15T12:04:20.538Z,1.80
2023-08-15T12:06:47.844Z,1.77
2023-08-15T12:09:14.979Z,1.80
2023-08-15T12:11:42.840Z,1.70
2023-08-15T12:14:20.539Z,1.58
2023-08-15T12:16:47.610Z,1.48
2023-08-15T12:19:17.097Z,1.80
2023-08-15T12:21:45.309Z,1.20
2023-08-15T12:24:12.469Z,1.85
2023-08-15T12:26:39.665Z,1.60
2023-08-15T12:29:06.762Z,1.55
2023-08-15T12:31:38.014Z,1.52
2023-08-15T12:34:05.152Z,1.73
2023-08-15T12:36:32.247Z,1.60
2023-08-15T12:38:59.185Z,1.55
2023-08-15T12:41:26.348Z,1.85
2023-08-15T12:43:53.757Z,1.60
2023-08-15T12:46:21.125Z,1.70
2023-08-15T12:48:48.190Z,1.70
2023-08-15T12:51:15.863Z,1.80
2023-08-15T12:53:43.284Z,1.50
2023-08-15T12:56:11.050Z,1.80
2023-08-15T12:58:38.645Z,1.90
2023-08-15T13:01:05.749Z,2.03
2023-08-15T13:03:32.788Z,1.80
2023-08-15T13:06:00.404Z,1.70
2023-08-15T13:08:27.532Z,1.60
2023-08-15T13:10:55.401Z,1.85
2023-08-15T13:13:22.420Z,1.80
2023-08-15T13:15:51.631Z,1.77
2023-08-15T13:18:18.698Z,1.80
2023-08-15T13:20:45.940Z,2.05
2023-08-15T13:23:12.856Z,2.00
2023-08-15T13:25:39.944Z,2.30
2023-08-15T13:28:07.172Z,1.70
2023-08-15T13:30:34.533Z,2.10
2023-08-15T13:33:02.197Z,1.98
2023-08-15T13:35:29.173Z,2.17
2023-08-15T13:37:56.112Z,2.03
2023-08-15T13:40:23.153Z,2.20
2023-08-15T13:42:50.098Z,1.92
2023-08-15T13:45:18.562Z,2.45
2023-08-15T13:47:45.586Z,2.03
2023-08-15T13:50:13.031Z,2.22
2023-08-15T13:52:40.070Z,2.00
2023-08-15T13:55:07.705Z,1.95
2023-08-15T13:57:34.604Z,2.13
2023-08-15T14:00:02.582Z,2.50
2023-08-15T14:02:35.211Z,2.22
2023-08-15T14:05:04.213Z,2.10
2023-08-15T14:07:31.235Z,2.38
2023-08-15T14:09:58.299Z,2.20
2023-08-15T14:12:27.355Z,2.50
2023-08-15T14:14:54.333Z,2.08
2023-08-15T14:17:21.247Z,2.20
2023-08-15T14:19:48.271Z,2.72
2023-08-15T14:22:16.271Z,2.40
2023-08-15T14:24:47.990Z,2.50
2023-08-15T14:27:15.277Z,2.38
2023-08-15T14:29:42.825Z,2.00
2023-08-15T14:32:10.161Z,2.47
2023-08-15T14:34:37.249Z,2.35
2023-08-15T14:37:04.189Z,2.40
2023-08-15T14:39:31.132Z,3.10
2023-08-15T14:41:58.018Z,2.35
2023-08-15T14:44:25.003Z,2.47
2023-08-15T14:46:52.169Z,2.67
2023-08-15T14:49:19.227Z,2.10
2023-08-15T14:51:46.571Z,2.50
2023-08-15T14:54:13.899Z,2.60
2023-08-15T14:56:41.149Z,2.78
2023-08-15T14:59:08.639Z,2.72
2023-08-15T15:01:36.210Z,2.53
2023-08-15T15:04:03.316Z,2.67
2023-08-15T15:06:30.387Z,2.70
2023-08-15T15:08:57.469Z,2.47
2023-08-15T15:11:24.685Z,2.38
2023-08-15T15:13:51.681Z,2.75
2023-08-15T15:16:19.122Z,2.80
2023-08-15T15:18:46.107Z,3.10
2023-08-15T15:21:13.009Z,2.65
2023-08-15T15:23:40.137Z,3.00
2023-08-15T15:26:07.175Z,2.67
2023-08-15T15:28:34.739Z,2.80
2023-08-15T15:31:02.226Z,3.35
2023-08-15T15:33:30.668Z,2.88
2023-08-15T15:35:57.760Z,3.00
2023-08-15T15:38:24.760Z,3.50
2023-08-15T15:40:51.873Z,3.30
2023-08-15T15:43:19.011Z,2.80
2023-08-15T15:45:46.432Z,3.05
2023-08-15T15:48:13.486Z,3.40
2023-08-15T15:50:40.723Z,2.97
2023-08-15T15:53:08.075Z,3.15
2023-08-15T15:55:35.414Z,3.10
2023-08-15T15:58:02.865Z,3.33
2023-08-15T16:00:30.058Z,3.15
2023-08-15T16:02:57.220Z,2.80
2023-08-15T16:05:24.702Z,3.65
2023-08-15T16:07:52.052Z,3.42
2023-08-15T16:10:19.446Z,3.35
2023-08-15T16:12:46.536Z,2.97
2023-08-15T16:15:13.834Z,2.92
2023-08-15T16:17:43.846Z,2.97
2023-08-15T16:20:11.911Z,3.42
2023-08-15T16:22:39.433Z,3.00
2023-08-15T16:25:06.920Z,3.25
2023-08-15T16:27:34.011Z,3.40
2023-08-15T16:30:14.917Z,3.38
2023-08-15T16:32:42.764Z,3.63
2023-08-15T16:35:09.905Z,3.78
2023-08-15T16:37:37.029Z,3.30
2023-08-15T16:40:04.193Z,3.47
2023-08-15T16:42:31.175Z,3.40
2023-08-15T16:44:58.148Z,3.40
2023-08-15T16:47:25.301Z,3.50
2023-08-15T16:49:52.537Z,3.33
2023-08-15T16:52:20.044Z,3.88
2023-08-15T16:54:47.879Z,4.40
2023-08-15T16:57:15.044Z,4.47
2023-08-15T16:59:43.273Z,4.22
2023-08-15T17:02:10.697Z,4.20
2023-08-15T17:04:37.777Z,4.13
2023-08-15T17:07:04.842Z,5.10
2023-08-15T17:09:31.876Z,5.05
2023-08-15T17:11:58.773Z,4.43
2023-08-15T17:14:25.716Z,5.82
2023-08-15T17:16:52.654Z,5.53
2023-08-15T17:19:20.397Z,5.47
2023-08-15T17:21:47.428Z,8.45
2023-08-15T17:24:14.614Z,7.38
2023-08-15T17:26:41.701Z,7.93
2023-08-15T17:29:08.631Z,6.32
2023-08-15T17:31:35.473Z,5.10
2023-08-15T17:34:02.400Z,6.35
2023-08-15T17:36:30.289Z,6.38
2023-08-15T17:38:57.179Z,6.25
2023-08-15T17:41:24.186Z,6.15
2023-08-15T17:43:51.129Z,6.22
2023-08-15T17:46:18.913Z,6.03
2023-08-15T17:48:46.105Z,6.28
2023-08-15T17:51:13.030Z,6.05
2023-08-15T17:53:40.314Z,6.60
2023-08-15T17:56:07.294Z,6.05
2023-08-15T17:58:51.519Z,7.18
2023-08-15T18:01:19.229Z,8.38
2023-08-15T18:03:47.511Z,9.02
2023-08-15T18:06:15.688Z,8.30
2023-08-15T18:08:42.757Z,7.78
2023-08-15T18:11:09.839Z,8.35
2023-08-15T18:13:37.820Z,8.00
2023-08-15T18:16:05.239Z,7.93
2023-08-15T18:18:32.172Z,8.43
2023-08-15T18:20:59.338Z,8.30
2023-08-15T18:23:26.186Z,8.52
2023-08-15T18:25:53.293Z,8.90
2023-08-15T18:28:20.291Z,8.45
2023-08-15T18:30:47.306Z,8.43
2023-08-15T18:33:15.410Z,10.18
2023-08-15T18:35:43.157Z,9.75
2023-08-15T18:38:10.148Z,10.13
2023-08-15T18:40:39.365Z,11.60
2023-08-15T18:43:09.148Z,12.00
2023-08-15T18:45:43.519Z,13.00
2023-08-15T18:48:11.928Z,12.02
2023-08-15T18:50:43.794Z,12.70
2023-08-15T18:53:10.837Z,11.52
2023-08-15T18:55:37.950Z,10.80
2023-08-15T18:58:05.517Z,10.82
2023-08-15T19:00:32.413Z,13.77
2023-08-15T19:02:59.547Z,16.23
2023-08-15T19:05:26.894Z,10.63
2023-08-15T19:07:54.218Z,9.35
2023-08-15T19:10:22.202Z,8.40
2023-08-15T19:12:49.221Z,8.13
2023-08-15T19:15:23.117Z,9.07
2023-08-15T19:17:51.132Z,8.55
2023-08-15T19:20:28.613Z,8.38
2023-08-15T19:22:55.700Z,9.55
2023-08-15T19:25:24.687Z,10.07
2023-08-15T19:27:53.450Z,10.07
2023-08-15T19:30:21.393Z,9.20
2023-08-15T19:32:48.802Z,9.20
2023-08-15T19:35:16.967Z,9.73
2023-08-15T19:37:44.488Z,9.27
2023-08-15T19:40:11.747Z,9.45
2023-08-15T19:42:44.325Z,9.57
2023-08-15T19:47:40.273Z,9.98
2023-08-15T19:50:08.799Z,10.40
2023-08-15T19:52:36.301Z,9.73
2023-08-15T19:55:07.005Z,10.38
2023-08-15T19:57:34.140Z,10.48
2023-08-15T20:00:01.281Z,12.05
2023-08-15T20:02:28.331Z,12.43
2023-08-15T20:04:56.625Z,13.48
2023-08-15T20:07:23.772Z,13.25
2023-08-15T20:10:03.959Z,12.88
2023-08-15T20:12:35.710Z,13.05
2023-08-15T20:15:02.848Z,12.60
2023-08-15T20:17:29.870Z,13.23
2023-08-15T20:19:56.904Z,13.38
2023-08-15T20:22:24.067Z,12.70
2023-08-15T20:24:51.321Z,13.30
2023-08-15T20:27:18.364Z,13.55
2023-08-15T20:29:45.693Z,14.52
2023-08-15T20:32:12.891Z,13.98
2023-08-15T20:34:40.369Z,14.98
2023-08-15T20:37:07.854Z,14.68
2023-08-15T20:39:35.152Z,15.30
2023-08-15T20:42:02.102Z,15.05
2023-08-15T20:44:29.082Z,14.25
2023-08-15T20:46:56.418Z,13.88
2023-08-15T20:49:23.494Z,15.02
2023-08-15T20:51:50.650Z,15.90
2023-08-15T20:54:17.711Z,13.82
2023-08-15T20:56:44.659Z,15.13
2023-08-15T20:59:11.677Z,14.48
2023-08-15T21:01:38.701Z,18.55
2023-08-15T21:04:06.267Z,20.42
2023-08-15T21:06:33.342Z,19.27
2023-08-15T21:09:00.383Z,20.55
2023-08-15T21:11:27.453Z,17.77
2023-08-15T21:13:56.669Z,17.83
2023-08-15T21:16:23.885Z,16.38
2023-08-15T21:18:51.071Z,15.07
2023-08-15T21:21:18.070Z,13.70
2023-08-15T21:23:45.083Z,12.48
2023-08-15T21:26:11.990Z,10.85
2023-08-15T21:28:38.964Z,12.07
2023-08-15T21:31:06.360Z,12.73
2023-08-15T21:33:33.750Z,11.65
2023-08-15T21:36:01.426Z,13.55
2023-08-15T21:38:28.545Z,14.90
2023-08-15T21:40:55.605Z,15.27
2023-08-15T21:43:22.619Z,14.27
2023-08-15T21:45:49.622Z,14.43
2023-08-15T21:48:16.656Z,15.15
2023-08-15T21:50:43.719Z,15.85
2023-08-15T21:53:10.582Z,16.55
2023-08-15T21:55:37.554Z,18.63
2023-08-15T21:58:04.607Z,16.80
2023-08-15T22:00:31.714Z,15.23
2023-08-15T22:02:58.978Z,16.08
2023-08-15T22:05:26.880Z,17.00
2023-08-15T22:07:54.259Z,16.40
2023-08-15T22:10:23.100Z,16.88
2023-08-15T22:12:51.172Z,15.50
2023-08-15T22:15:19.363Z,15.25
2023-08-15T22:17:52.185Z,15.35
2023-08-15T22:20:21.682Z,15.70
2023-08-15T22:22:48.846Z,15.70
2023-08-15T22:25:18.580Z,15.55
2023-08-15T22:27:46.151Z,15.07
2023-08-15T22:30:13.867Z,14.57
2023-08-15T22:32:40.900Z,14.60
2023-08-15T22:35:08.353Z,14.48
2023-08-15T22:37:35.401Z,15.13
2023-08-15T22:40:04.902Z,14.57
2023-08-15T22:42:32.403Z,15.90
2023-08-15T22:44:59.325Z,17.77
2023-08-15T22:47:26.613Z,16.85
2023-08-15T22:49:53.483Z,16.42
2023-08-15T22:52:20.472Z,16.75
2023-08-15T22:54:47.375Z,16.67
2023-08-15T22:57:14.313Z,15.70
2023-08-15T22:59:41.297Z,16.40
2023-08-15T23:02:08.493Z,16.85
2023-08-15T23:04:35.473Z,16.60
2023-08-15T23:07:02.560Z,17.27
2023-08-15T23:09:29.545Z,16.92
2023-08-15T23:11:56.543Z,16.80
2023-08-15T23:14:23.536Z,17.33
2023-08-15T23:16:50.567Z,16.75
2023-08-15T23:19:17.717Z,16.40
2023-08-15T23:21:44.752Z,15.80
2023-08-15T23:24:11.770Z,15.43
2023-08-15T23:26:38.913Z,16.63
2023-08-15T23:29:05.943Z,17.15
2023-08-15T23:31:34.620Z,18.10
2023-08-15T23:34:05.675Z,17.90
2023-08-15T23:36:33.692Z,16.80
2023-08-15T23:39:00.852Z,19.25
2023-08-15T23:41:28.764Z,20.52
2023-08-15T23:43:55.764Z,21.33
2023-08-15T23:46:24.446Z,20.60
2023-08-15T23:48:52.180Z,21.98
2023-08-15T23:51:19.385Z,21.67
2023-08-15T23:53:48.637Z,19.52
2023-08-15T23:56:16.329Z,18.85
2023-08-15T23:58:43.517Z,18.83
